createdAt,value
2022-08-26T00:02:01.533Z,3.87
2022-08-26T00:04:31.506Z,3.57
2022-08-26T00:07:00.360Z,4.00
2022-08-26T00:09:29.117Z,3.80
2022-08-26T00:11:57.578Z,4.17
2022-08-26T00:14:31.033Z,4.37
2022-08-26T00:17:00.194Z,3.93
2022-08-26T00:19:28.804Z,4.00
2022-08-26T00:21:57.383Z,3.93
2022-08-26T00:24:25.993Z,4.17
2022-08-26T00:26:54.445Z,3.73
2022-08-26T00:29:23.059Z,4.87
2022-08-26T00:31:51.837Z,3.90
2022-08-26T00:34:20.516Z,4.10
2022-08-26T00:36:52.053Z,4.23
2022-08-26T00:39:21.187Z,4.27
2022-08-26T00:41:49.969Z,3.83
2022-08-26T00:44:19.297Z,4.00
2022-08-26T00:46:52.872Z,4.20
2022-08-26T00:49:31.009Z,4.13
2022-08-26T00:52:03.889Z,3.70
2022-08-26T00:54:44.645Z,3.93
2022-08-26T00:57:16.760Z,3.90
2022-08-26T00:59:47.664Z,3.80
2022-08-26T01:02:20.967Z,4.23
2022-08-26T01:04:55.639Z,4.00
2022-08-26T01:07:26.179Z,4.30
2022-08-26T01:09:57.546Z,3.93
2022-08-26T01:12:31.778Z,3.50
2022-08-26T01:15:01.580Z,4.00
2022-08-26T01:17:30.259Z,4.27
2022-08-26T01:20:09.969Z,4.27
2022-08-26T01:22:49.817Z,3.90
2022-08-26T01:25:23.472Z,4.43
2022-08-26T01:27:55.041Z,3.87
2022-08-26T01:30:27.763Z,3.93
2022-08-26T01:32:58.075Z,4.23
2022-08-26T01:35:27.545Z,4.27
2022-08-26T01:37:56.837Z,3.83
2022-08-26T01:40:32.101Z,4.87
2022-08-26T01:43:02.857Z,4.63
2022-08-26T01:45:34.273Z,4.90
2022-08-26T01:48:11.030Z,3.90
2022-08-26T01:50:40.119Z,4.10
2022-08-26T01:53:12.081Z,4.50
2022-08-26T01:55:45.748Z,3.60
2022-08-26T01:58:20.517Z,4.00
2022-08-26T02:00:50.423Z,4.23
2022-08-26T02:03:21.792Z,4.40
2022-08-26T02:05:53.908Z,4.50
2022-08-26T02:08:27.853Z,3.67
2022-08-26T02:10:56.610Z,4.23
2022-08-26T02:13:30.767Z,4.50
2022-08-26T02:16:01.598Z,4.00
2022-08-26T02:18:34.493Z,4.10
2022-08-26T02:21:06.615Z,4.87
2022-08-26T02:23:35.572Z,4.83
2022-08-26T02:26:09.461Z,4.20
2022-08-26T02:31:08.906Z,4.03
2022-08-26T02:33:38.581Z,3.97
2022-08-26T02:36:13.487Z,4.58
2022-08-26T02:38:44.465Z,4.10
2022-08-26T02:41:15.091Z,4.20
2022-08-26T02:43:43.881Z,4.13
2022-08-26T02:46:12.608Z,4.63
2022-08-26T02:48:50.633Z,3.75
2022-08-26T02:51:19.068Z,4.10
2022-08-26T02:53:47.532Z,4.47
2022-08-26T02:56:15.988Z,3.90
2022-08-26T02:58:44.568Z,4.17
2022-08-26T03:01:22.759Z,4.10
2022-08-26T03:03:51.713Z,3.97
2022-08-26T03:06:20.810Z,4.10
2022-08-26T03:08:49.565Z,4.37
2022-08-26T03:11:19.095Z,4.23
2022-08-26T03:13:47.686Z,3.93
2022-08-26T03:16:16.902Z,4.23
2022-08-26T03:18:47.015Z,4.17
2022-08-26T03:21:21.148Z,5.00
2022-08-26T03:23:49.709Z,5.20
2022-08-26T03:26:18.905Z,5.30
2022-08-26T03:29:05.943Z,4.23
2022-08-26T03:31:35.532Z,4.60
2022-08-26T03:34:04.105Z,4.37
2022-08-26T03:36:33.164Z,4.90
2022-08-26T03:39:04.413Z,5.03
2022-08-26T03:41:36.075Z,5.00
2022-08-26T03:44:06.366Z,4.50
2022-08-26T03:46:35.464Z,4.07
2022-08-26T03:49:05.445Z,4.57
2022-08-26T03:51:35.844Z,4.73
2022-08-26T03:54:09.131Z,4.53
2022-08-26T03:56:37.964Z,4.17
2022-08-26T03:59:08.555Z,4.83
2022-08-26T04:01:37.305Z,5.00
2022-08-26T04:04:06.955Z,5.03
2022-08-26T04:06:38.305Z,4.50
2022-08-26T04:09:09.385Z,4.30
2022-08-26T04:11:39.682Z,4.57
2022-08-26T04:14:12.893Z,4.47
2022-08-26T04:16:43.284Z,4.90
2022-08-26T04:19:13.852Z,4.90
2022-08-26T04:21:43.148Z,4.53
2022-08-26T04:24:14.612Z,4.40
2022-08-26T04:26:43.993Z,4.43
2022-08-26T04:29:16.724Z,4.43
2022-08-26T04:31:46.416Z,4.20
2022-08-26T04:34:16.998Z,4.03
2022-08-26T04:36:45.706Z,5.10
2022-08-26T04:39:16.355Z,5.00
2022-08-26T04:41:46.114Z,4.30
2022-08-26T04:44:15.930Z,4.55
2022-08-26T04:46:46.051Z,4.10
2022-08-26T04:49:14.542Z,4.57
2022-08-26T04:51:43.920Z,4.77
2022-08-26T04:54:13.644Z,4.70
2022-08-26T04:56:49.105Z,5.10
2022-08-26T04:59:18.206Z,4.47
2022-08-26T05:01:49.463Z,4.77
2022-08-26T05:04:20.157Z,4.77
2022-08-26T05:06:49.426Z,4.73
2022-08-26T05:09:18.681Z,4.57
2022-08-26T05:11:48.520Z,4.50
2022-08-26T05:14:22.768Z,5.45
2022-08-26T05:16:52.018Z,5.00
2022-08-26T05:19:21.087Z,5.20
2022-08-26T05:21:50.215Z,4.67
2022-08-26T05:24:18.809Z,5.17
2022-08-26T05:26:48.127Z,4.80
2022-08-26T05:29:16.937Z,4.27
2022-08-26T05:31:45.490Z,3.90
2022-08-26T05:34:14.221Z,5.03
2022-08-26T05:36:43.014Z,4.40
2022-08-26T05:39:12.022Z,4.50
2022-08-26T05:41:44.860Z,4.47
2022-08-26T05:44:15.733Z,3.90
2022-08-26T05:46:45.644Z,4.63
2022-08-26T05:49:15.387Z,4.37
2022-08-26T05:51:46.024Z,4.83
2022-08-26T05:54:21.993Z,3.90
2022-08-26T05:56:51.790Z,4.60
2022-08-26T05:59:24.192Z,4.60
2022-08-26T06:01:54.417Z,4.97
2022-08-26T06:04:27.076Z,4.37
2022-08-26T06:06:58.543Z,4.67
2022-08-26T06:09:27.159Z,4.03
2022-08-26T06:11:58.272Z,4.60
2022-08-26T06:14:26.734Z,4.27
2022-08-26T06:16:55.190Z,4.63
2022-08-26T06:19:23.836Z,4.17
2022-08-26T06:21:54.926Z,4.43
2022-08-26T06:24:50.985Z,3.90
2022-08-26T06:27:19.946Z,3.83
2022-08-26T06:29:48.712Z,4.47
2022-08-26T06:32:17.272Z,3.87
2022-08-26T06:34:45.767Z,4.27
2022-08-26T06:37:14.655Z,4.37
2022-08-26T06:39:44.140Z,4.27
2022-08-26T06:42:12.945Z,4.07
2022-08-26T06:44:44.739Z,4.60
2022-08-26T06:47:13.582Z,3.97
2022-08-26T06:49:42.429Z,3.90
2022-08-26T06:52:12.753Z,4.03
2022-08-26T06:54:42.674Z,4.40
2022-08-26T06:57:12.713Z,4.37
2022-08-26T06:59:45.739Z,4.37
2022-08-26T07:02:14.610Z,3.90
2022-08-26T07:04:43.866Z,4.57
2022-08-26T07:07:16.368Z,3.40
2022-08-26T07:09:45.399Z,4.60
2022-08-26T07:12:13.824Z,3.80
2022-08-26T07:14:47.557Z,3.83
2022-08-26T07:17:17.273Z,4.03
2022-08-26T07:19:49.022Z,4.10
2022-08-26T07:22:18.256Z,3.93
2022-08-26T07:24:46.718Z,4.37
2022-08-26T07:27:17.162Z,3.97
2022-08-26T07:29:45.868Z,4.03
2022-08-26T07:32:16.558Z,4.27
2022-08-26T07:34:45.626Z,3.97
2022-08-26T07:37:14.744Z,3.77
2022-08-26T07:39:44.630Z,4.20
2022-08-26T07:42:18.476Z,3.53
2022-08-26T07:44:47.636Z,4.00
2022-08-26T07:47:25.780Z,3.83
2022-08-26T07:49:57.229Z,3.67
2022-08-26T07:52:28.149Z,4.00
2022-08-26T07:54:58.302Z,4.03
2022-08-26T07:57:28.323Z,3.83
2022-08-26T07:59:57.719Z,3.97
2022-08-26T08:02:28.213Z,4.23
2022-08-26T08:04:57.774Z,3.77
2022-08-26T08:07:44.222Z,3.73
2022-08-26T08:10:16.894Z,4.23
2022-08-26T08:12:45.419Z,4.10
2022-08-26T08:15:15.337Z,4.10
2022-08-26T08:17:44.178Z,4.30
2022-08-26T08:20:14.433Z,4.20
2022-08-26T08:22:43.608Z,4.50
2022-08-26T08:25:13.339Z,4.33
2022-08-26T08:27:44.497Z,4.33
2022-08-26T08:30:15.521Z,4.13
2022-08-26T08:32:51.406Z,4.73
2022-08-26T08:35:22.239Z,4.73
2022-08-26T08:37:53.711Z,4.43
2022-08-26T08:40:25.669Z,4.30
2022-08-26T08:42:59.364Z,4.03
2022-08-26T08:45:36.566Z,4.63
2022-08-26T08:48:15.932Z,3.90
2022-08-26T08:50:48.823Z,4.47
2022-08-26T08:53:22.602Z,4.23
2022-08-26T08:56:04.263Z,4.07
2022-08-26T08:58:50.867Z,4.40
2022-08-26T09:01:29.942Z,4.43
2022-08-26T09:04:18.129Z,4.00
2022-08-26T09:06:49.601Z,3.53
2022-08-26T09:09:23.718Z,3.80
2022-08-26T09:11:52.868Z,4.40
2022-08-26T09:14:22.210Z,3.87
2022-08-26T09:17:00.629Z,4.00
2022-08-26T09:19:37.573Z,3.70
2022-08-26T09:22:09.407Z,3.47
2022-08-26T09:24:42.134Z,3.77
2022-08-26T09:27:37.771Z,4.67
2022-08-26T09:30:11.462Z,4.77
2022-08-26T09:32:41.647Z,4.30
2022-08-26T09:35:24.360Z,4.33
2022-08-26T09:37:52.999Z,4.42
2022-08-26T09:40:28.579Z,4.40
2022-08-26T09:43:09.921Z,5.27
2022-08-26T09:45:40.796Z,4.13
2022-08-26T09:48:29.722Z,4.07
2022-08-26T09:51:01.322Z,3.83
2022-08-26T09:53:31.901Z,4.35
2022-08-26T09:56:25.172Z,4.40
2022-08-26T09:58:54.637Z,3.87
2022-08-26T10:01:34.325Z,4.45
2022-08-26T10:04:09.970Z,5.03
2022-08-26T10:06:43.427Z,4.57
2022-08-26T10:09:17.185Z,4.37
2022-08-26T10:11:51.703Z,4.07
2022-08-26T10:14:26.239Z,4.10
2022-08-26T10:17:02.813Z,4.07
2022-08-26T10:19:55.917Z,5.03
2022-08-26T10:22:34.906Z,4.03
2022-08-26T10:25:09.844Z,3.87
2022-08-26T10:27:49.756Z,4.20
2022-08-26T10:32:56.554Z,4.30
2022-08-26T10:35:26.588Z,3.93
2022-08-26T10:38:03.482Z,3.90
2022-08-26T10:40:45.361Z,3.97
2022-08-26T10:43:22.023Z,4.17
2022-08-26T10:45:53.142Z,4.20
2022-08-26T10:48:35.617Z,3.80
2022-08-26T10:51:05.824Z,3.80
2022-08-26T10:53:45.833Z,3.83
2022-08-26T10:56:27.995Z,3.90
2022-08-26T10:59:06.764Z,3.98
2022-08-26T11:01:51.056Z,3.87
2022-08-26T11:04:37.178Z,4.07
2022-08-26T11:07:31.765Z,4.53
2022-08-26T11:10:03.507Z,4.23
2022-08-26T11:12:56.347Z,3.97
2022-08-26T11:18:12.788Z,4.10
2022-08-26T11:20:44.347Z,4.30
2022-08-26T11:23:50.424Z,4.23
2022-08-26T11:26:35.485Z,3.90
2022-08-26T11:29:13.508Z,4.13
2022-08-26T11:31:57.032Z,4.17
2022-08-26T11:34:54.822Z,3.87
2022-08-26T11:37:32.279Z,3.87
2022-08-26T11:40:04.283Z,4.10
2022-08-26T11:42:40.382Z,4.20
2022-08-26T11:45:22.541Z,3.93
2022-08-26T11:47:52.366Z,4.47
2022-08-26T11:50:25.518Z,4.20
2022-08-26T11:53:01.012Z,4.13
2022-08-26T11:55:30.858Z,3.87
2022-08-26T11:58:04.656Z,4.13
2022-08-26T12:00:37.972Z,4.00
2022-08-26T12:03:23.001Z,4.03
2022-08-26T12:05:54.002Z,4.10
2022-08-26T12:08:27.943Z,3.85
2022-08-26T12:11:06.442Z,3.67
2022-08-26T12:13:38.496Z,3.90
2022-08-26T12:16:08.513Z,4.33
2022-08-26T12:18:38.681Z,4.37
2022-08-26T12:21:15.991Z,4.60
2022-08-26T12:23:48.603Z,4.13
2022-08-26T12:26:26.752Z,3.90
2022-08-26T12:28:59.190Z,3.63
2022-08-26T12:31:31.490Z,4.23
2022-08-26T12:34:03.639Z,4.27
2022-08-26T12:36:36.823Z,4.13
2022-08-26T12:39:11.015Z,3.87
2022-08-26T12:41:49.900Z,4.27
2022-08-26T12:44:37.768Z,4.13
2022-08-26T12:47:17.016Z,3.97
2022-08-26T12:50:01.936Z,4.43
2022-08-26T12:52:32.697Z,3.70
2022-08-26T12:55:04.884Z,4.00
2022-08-26T12:57:35.824Z,4.33
2022-08-26T13:00:28.283Z,4.80
2022-08-26T13:02:58.259Z,4.12
2022-08-26T13:05:33.522Z,3.90
2022-08-26T13:08:24.307Z,3.80
2022-08-26T13:11:04.157Z,3.63
2022-08-26T13:13:33.296Z,4.20
2022-08-26T13:16:02.607Z,3.40
2022-08-26T13:18:31.236Z,3.77
2022-08-26T13:20:59.791Z,4.20
2022-08-26T13:23:28.819Z,3.85
2022-08-26T13:25:58.271Z,3.63
2022-08-26T13:28:26.977Z,3.83
2022-08-26T13:30:55.679Z,3.77
2022-08-26T13:33:24.190Z,3.60
2022-08-26T13:35:52.740Z,3.60
2022-08-26T13:38:29.015Z,4.20
2022-08-26T13:41:02.989Z,4.60
2022-08-26T13:43:32.039Z,4.27
2022-08-26T13:46:01.406Z,4.40
2022-08-26T13:48:31.099Z,4.50
2022-08-26T13:50:59.577Z,4.73
2022-08-26T13:53:29.916Z,4.67
2022-08-26T13:55:59.715Z,5.47
2022-08-26T13:58:29.161Z,4.60
2022-08-26T14:00:58.616Z,4.80
2022-08-26T14:03:27.531Z,4.93
2022-08-26T14:05:56.180Z,4.80
2022-08-26T14:08:24.765Z,4.43
2022-08-26T14:10:53.374Z,5.00
2022-08-26T14:13:22.203Z,5.60
2022-08-26T14:15:52.675Z,4.33
2022-08-26T14:18:25.737Z,4.80
2022-08-26T14:20:56.804Z,5.70
2022-08-26T14:23:25.709Z,4.67
2022-08-26T14:25:54.813Z,4.53
2022-08-26T14:28:23.427Z,5.03
2022-08-26T14:30:55.842Z,5.00
2022-08-26T14:33:28.186Z,4.85
2022-08-26T14:36:17.355Z,4.67
2022-08-26T14:38:47.050Z,4.90
2022-08-26T14:41:17.089Z,4.67
2022-08-26T14:43:49.056Z,4.87
2022-08-26T14:46:18.301Z,4.43
2022-08-26T14:48:46.991Z,4.83
2022-08-26T14:51:15.562Z,4.93
2022-08-26T14:54:02.908Z,5.47
2022-08-26T14:56:33.005Z,5.27
2022-08-26T14:59:01.600Z,5.10
2022-08-26T15:01:31.670Z,5.30
2022-08-26T15:04:00.915Z,4.70
2022-08-26T15:06:31.369Z,5.20
2022-08-26T15:09:00.079Z,5.57
2022-08-26T15:11:28.963Z,5.17
2022-08-26T15:13:57.572Z,4.97
2022-08-26T15:16:28.576Z,5.00
2022-08-26T15:18:57.809Z,5.50
2022-08-26T15:21:28.040Z,5.73
2022-08-26T15:24:00.454Z,4.93
2022-08-26T15:26:30.628Z,5.40
2022-08-26T15:29:03.085Z,5.20
2022-08-26T15:31:35.573Z,5.13
2022-08-26T15:34:07.686Z,5.80
2022-08-26T15:36:37.382Z,5.50
2022-08-26T15:39:07.674Z,4.37
2022-08-26T15:41:36.969Z,4.87
2022-08-26T15:44:07.159Z,4.60
2022-08-26T15:46:36.526Z,4.77
2022-08-26T15:49:08.059Z,4.70
2022-08-26T15:51:46.270Z,4.13
2022-08-26T15:54:17.153Z,4.57
2022-08-26T15:56:48.625Z,4.70
2022-08-26T15:59:18.722Z,4.70
2022-08-26T16:01:47.829Z,4.63
2022-08-26T16:04:17.122Z,4.90
2022-08-26T16:06:49.595Z,4.73
2022-08-26T16:09:18.383Z,4.65
2022-08-26T16:11:48.214Z,4.80
2022-08-26T16:14:16.837Z,4.67
2022-08-26T16:16:46.545Z,4.80
2022-08-26T16:19:15.283Z,4.20
2022-08-26T16:21:44.487Z,4.57
2022-08-26T16:24:13.515Z,5.47
2022-08-26T16:26:44.846Z,4.70
2022-08-26T16:29:15.145Z,4.33
2022-08-26T16:31:43.869Z,4.83
2022-08-26T16:34:12.514Z,4.27
2022-08-26T16:36:41.485Z,4.27
2022-08-26T16:39:10.450Z,4.60
2022-08-26T16:41:39.147Z,4.57
2022-08-26T16:44:08.199Z,4.37
2022-08-26T16:46:39.249Z,4.27
2022-08-26T16:49:07.957Z,4.80
2022-08-26T16:51:38.025Z,4.63
2022-08-26T16:54:08.216Z,4.13
2022-08-26T16:56:37.533Z,4.50
2022-08-26T16:59:10.146Z,4.30
2022-08-26T17:01:38.833Z,4.35
2022-08-26T17:04:07.792Z,4.70
2022-08-26T17:06:37.435Z,4.00
2022-08-26T17:09:06.067Z,4.97
2022-08-26T17:11:35.167Z,3.83
2022-08-26T17:14:03.850Z,4.07
2022-08-26T17:16:32.983Z,4.70
2022-08-26T17:19:02.270Z,4.10
2022-08-26T17:21:33.406Z,4.50
2022-08-26T17:24:02.707Z,4.47
2022-08-26T17:26:31.472Z,4.43
2022-08-26T17:29:00.154Z,4.30
2022-08-26T17:31:28.775Z,4.03
2022-08-26T17:33:57.378Z,3.83
2022-08-26T17:36:28.139Z,4.20
2022-08-26T17:38:58.267Z,3.67
2022-08-26T17:41:27.606Z,4.03
2022-08-26T17:43:56.898Z,4.27
2022-08-26T17:46:25.890Z,4.83
2022-08-26T17:48:54.623Z,4.70
2022-08-26T17:51:24.131Z,3.83
2022-08-26T17:53:53.127Z,4.40
2022-08-26T17:56:25.097Z,4.23
2022-08-26T17:58:57.196Z,4.03
2022-08-26T18:01:31.327Z,4.20
2022-08-26T18:04:01.028Z,4.33
2022-08-26T18:06:30.381Z,4.07
2022-08-26T18:08:59.601Z,4.97
2022-08-26T18:11:29.065Z,5.07
2022-08-26T18:13:57.667Z,4.93
2022-08-26T18:16:27.531Z,4.40
2022-08-26T18:18:56.064Z,4.80
2022-08-26T18:21:27.005Z,4.53
2022-08-26T18:23:56.346Z,5.10
2022-08-26T18:26:28.060Z,6.27
2022-08-26T18:28:57.057Z,5.97
2022-08-26T18:31:26.562Z,6.37
2022-08-26T18:33:55.287Z,5.40
2022-08-26T18:36:25.907Z,6.20
2022-08-26T18:38:55.288Z,5.53
2022-08-26T18:41:27.206Z,6.20
2022-08-26T18:43:56.864Z,5.57
2022-08-26T18:46:27.493Z,5.73
2022-08-26T18:48:57.047Z,5.60
2022-08-26T18:51:29.209Z,5.43
2022-08-26T18:53:59.089Z,5.27
2022-08-26T18:56:28.596Z,4.77
2022-08-26T18:58:58.454Z,5.40
2022-08-26T19:01:28.789Z,5.47
2022-08-26T19:03:59.521Z,5.80
2022-08-26T19:06:32.525Z,5.13
2022-08-26T19:09:02.181Z,5.65
2022-08-26T19:11:31.529Z,5.03
2022-08-26T19:14:01.811Z,5.20
2022-08-26T19:16:31.050Z,6.83
2022-08-26T19:19:00.804Z,5.97
2022-08-26T19:21:32.668Z,8.27
2022-08-26T19:24:04.231Z,7.83
2022-08-26T19:26:33.010Z,6.70
2022-08-26T19:29:02.064Z,5.60
2022-08-26T19:31:30.820Z,5.60
2022-08-26T19:33:59.633Z,5.10
2022-08-26T19:36:28.670Z,4.30
2022-08-26T19:38:57.813Z,5.03
2022-08-26T19:41:36.998Z,4.77
2022-08-26T19:44:12.601Z,4.90
2022-08-26T19:46:41.806Z,4.80
2022-08-26T19:49:10.323Z,4.77
2022-08-26T19:51:38.748Z,4.70
2022-08-26T19:54:07.368Z,4.37
2022-08-26T19:56:36.131Z,4.80
2022-08-26T19:59:05.204Z,4.53
2022-08-26T20:01:33.788Z,5.00
2022-08-26T20:04:02.447Z,4.63
2022-08-26T20:06:33.379Z,4.53
2022-08-26T20:09:01.844Z,4.97
2022-08-26T20:11:30.605Z,4.60
2022-08-26T20:13:59.189Z,5.00
2022-08-26T20:16:27.706Z,4.43
2022-08-26T20:19:14.662Z,5.47
2022-08-26T20:21:43.641Z,4.73
2022-08-26T20:24:16.983Z,4.87
2022-08-26T20:26:46.733Z,4.75
2022-08-26T20:29:17.275Z,4.23
2022-08-26T20:31:46.859Z,5.67
2022-08-26T20:34:17.919Z,4.87
2022-08-26T20:36:49.036Z,5.10
2022-08-26T20:39:20.417Z,4.70
2022-08-26T20:41:50.146Z,5.07
2022-08-26T20:44:19.192Z,5.50
2022-08-26T20:46:48.282Z,4.40
2022-08-26T20:49:18.260Z,4.73
2022-08-26T20:51:51.205Z,4.67
2022-08-26T20:54:25.000Z,4.60
2022-08-26T20:56:58.093Z,4.57
2022-08-26T20:59:26.840Z,5.10
2022-08-26T21:01:55.700Z,5.00
2022-08-26T21:04:26.940Z,5.00
2022-08-26T21:06:55.867Z,4.90
2022-08-26T21:09:29.003Z,4.97
2022-08-26T21:11:59.513Z,5.10
2022-08-26T21:14:31.670Z,4.50
2022-08-26T21:17:00.785Z,4.93
2022-08-26T21:19:29.790Z,4.83
2022-08-26T21:21:58.838Z,4.90
2022-08-26T21:24:27.603Z,5.60
2022-08-26T21:26:56.338Z,5.30
2022-08-26T21:29:28.153Z,5.13
2022-08-26T21:31:57.298Z,5.07
2022-08-26T21:34:26.341Z,5.30
2022-08-26T21:36:55.180Z,5.10
2022-08-26T21:39:23.980Z,5.50
2022-08-26T21:41:52.709Z,5.70
2022-08-26T21:44:21.600Z,5.03
2022-08-26T21:46:50.419Z,5.10
2022-08-26T21:49:19.069Z,5.23
2022-08-26T21:54:56.967Z,4.97
2022-08-26T21:57:25.583Z,5.23
2022-08-26T21:59:54.730Z,6.13
2022-08-26T22:02:24.010Z,5.50
2022-08-26T22:04:52.601Z,5.67
2022-08-26T22:07:21.143Z,4.70
2022-08-26T22:09:50.903Z,5.30
2022-08-26T22:12:19.473Z,6.17
2022-08-26T22:14:48.852Z,6.00
2022-08-26T22:17:17.471Z,5.50
2022-08-26T22:19:46.806Z,5.53
2022-08-26T22:22:15.789Z,5.33
2022-08-26T22:24:44.819Z,5.60
2022-08-26T22:27:14.065Z,5.50
2022-08-26T22:29:42.951Z,5.40
2022-08-26T22:32:11.524Z,5.40
2022-08-26T22:34:41.627Z,6.07
2022-08-26T22:37:10.353Z,5.50
2022-08-26T22:39:39.202Z,6.00
2022-08-26T22:42:07.832Z,5.63
2022-08-26T22:44:36.981Z,5.80
2022-08-26T22:47:06.135Z,5.40
2022-08-26T22:49:34.627Z,5.43
2022-08-26T22:52:04.070Z,5.87
2022-08-26T22:54:32.547Z,5.73
2022-08-26T22:57:01.352Z,5.80
2022-08-26T22:59:29.867Z,6.33
2022-08-26T23:01:58.552Z,6.33
2022-08-26T23:04:27.052Z,5.80
2022-08-26T23:06:55.558Z,6.00
2022-08-26T23:09:24.051Z,6.10
2022-08-26T23:11:55.399Z,6.50
2022-08-26T23:14:24.700Z,5.93
2022-08-26T23:16:53.636Z,5.70
2022-08-26T23:19:23.102Z,6.07
2022-08-26T23:21:51.831Z,5.80
2022-08-26T23:24:20.587Z,5.90
2022-08-26T23:26:49.200Z,6.27
2022-08-26T23:29:17.891Z,5.87
2022-08-26T23:31:46.455Z,7.23
2022-08-26T23:34:33.852Z,6.20
2022-08-26T23:37:04.525Z,6.43
2022-08-26T23:39:36.484Z,6.47
2022-08-26T23:42:07.084Z,6.20
2022-08-26T23:44:35.768Z,6.53
2022-08-26T23:47:04.788Z,6.33
2022-08-26T23:49:34.702Z,7.33
2022-08-26T23:52:24.158Z,7.30
2022-08-26T23:54:52.707Z,6.30
2022-08-26T23:57:23.131Z,6.17
2022-08-26T23:59:52.674Z,6.60
